Austwell, Texas
Current Conditions -  °F | °C
As of 8:55 PM on Sunday 23 Nov 2014 (Local Time) from KPKV Reporting Station
Clear Clear  
Wind Chill: 18°   Ceiling: Unl
Heat Index: 18°   Visibility: 10mi
Dew Point: 17°   Wind: 6mph
Humidity: 93%   Direction: 220°SW
Pressure: 29.69"   Gusts: NA
Location:  28.39°N, 96.84°W
Report Text: KPKV 240255Z AUTO 22005KT 10SM CLR 18/17 A2969 RMK AO2 T01770166
Loading
Personal Weather Stations






























Interactive Weather Map New forecast layout! Learn more

10-Day Weather Forecast

Advertisements
Track Severe Weather on mobile